sensor_id;sensor_type;location;lat;lon;timestamp;temperature;humidity
10129;DHT22;5104;50.720;7.044;2023-10-08T00:02:09;15.90;99.90
10129;DHT22;5104;50.720;7.044;2023-10-08T00:04:38;15.90;1.00
10129;DHT22;5104;50.720;7.044;2023-10-08T00:07:05;15.90;99.90
10129;DHT22;5104;50.720;7.044;2023-10-08T00:09:33;15.90;99.90
10129;DHT22;5104;50.720;7.044;2023-10-08T00:12:03;16.00;1.00
10129;DHT22;5104;50.720;7.044;2023-10-08T00:14:30;16.00;99.90
10129;DHT22;5104;50.720;7.044;2023-10-08T00:16:58;16.10;32.80
10129;DHT22;5104;50.720;7.044;2023-10-08T00:19:26;16.10;1.00
10129;DHT22;5104;50.720;7.044;2023-10-08T00:22:01;16.20;1.00
10129;DHT22;5104;50.720;7.044;2023-10-08T00:24:32;16.20;99.90
10129;DHT22;5104;50.720;7.044;2023-10-08T00:26:59;16.20;99.90
10129;DHT22;5104;50.720;7.044;2023-10-08T00:29:32;16.10;99.90
10129;DHT22;5104;50.720;7.044;2023-10-08T00:31:59;16.10;99.90
10129;DHT22;5104;50.720;7.044;2023-10-08T00:34:37;16.10;99.90
10129;DHT22;5104;50.720;7.044;2023-10-08T00:37:09;16.00;99.90
10129;DHT22;5104;50.720;7.044;2023-10-08T00:39:40;16.00;99.90
10129;DHT22;5104;50.720;7.044;2023-10-08T00:42:08;16.00;9.60
10129;DHT22;5104;50.720;7.044;2023-10-08T00:44:35;15.90;80.40
10129;DHT22;5104;50.720;7.044;2023-10-08T00:47:13;15.90;99.90
10129;DHT22;5104;50.720;7.044;2023-10-08T00:49:42;15.80;99.90
10129;DHT22;5104;50.720;7.044;2023-10-08T00:52:21;15.80;99.90
10129;DHT22;5104;50.720;7.044;2023-10-08T00:55:04;15.80;99.90
10129;DHT22;5104;50.720;7.044;2023-10-08T00:57:40;15.70;99.90
10129;DHT22;5104;50.720;7.044;2023-10-08T01:00:13;15.70;99.90
10129;DHT22;5104;50.720;7.044;2023-10-08T01:02:46;15.80;99.90
10129;DHT22;5104;50.720;7.044;2023-10-08T01:05:26;15.70;99.90
10129;DHT22;5104;50.720;7.044;2023-10-08T01:08:11;15.80;99.90
10129;DHT22;5104;50.720;7.044;2023-10-08T01:10:43;15.80;99.90
10129;DHT22;5104;50.720;7.044;2023-10-08T01:13:12;15.70;99.90
10129;DHT22;5104;50.720;7.044;2023-10-08T01:15:45;15.70;99.90
10129;DHT22;5104;50.720;7.044;2023-10-08T01:18:16;15.70;99.90
10129;DHT22;5104;50.720;7.044;2023-10-08T01:20:54;15.70;1.00
10129;DHT22;5104;50.720;7.044;2023-10-08T01:23:24;15.50;1.00
10129;DHT22;5104;50.720;7.044;2023-10-08T01:25:54;15.40;94.20
10129;DHT22;5104;50.720;7.044;2023-10-08T01:28:35;15.30;1.00
10129;DHT22;5104;50.720;7.044;2023-10-08T01:31:02;15.20;1.00
10129;DHT22;5104;50.720;7.044;2023-10-08T01:33:32;15.00;1.00
10129;DHT22;5104;50.720;7.044;2023-10-08T01:36:04;14.90;1.00
10129;DHT22;5104;50.720;7.044;2023-10-08T01:38:39;14.80;99.90
10129;DHT22;5104;50.720;7.044;2023-10-08T01:41:07;14.80;1.00
10129;DHT22;5104;50.720;7.044;2023-10-08T01:43:44;14.70;1.00
10129;DHT22;5104;50.720;7.044;2023-10-08T01:46:11;14.70;1.00
10129;DHT22;5104;50.720;7.044;2023-10-08T01:48:38;14.70;1.00
10129;DHT22;5104;50.720;7.044;2023-10-08T01:51:05;14.60;99.90
10129;DHT22;5104;50.720;7.044;2023-10-08T01:53:36;14.60;99.90
10129;DHT22;5104;50.720;7.044;2023-10-08T01:56:05;14.50;99.90
10129;DHT22;5104;50.720;7.044;2023-10-08T01:58:32;14.50;99.90
10129;DHT22;5104;50.720;7.044;2023-10-08T02:01:00;14.50;1.00
10129;DHT22;5104;50.720;7.044;2023-10-08T02:03:31;14.40;1.00
10129;DHT22;5104;50.720;7.044;2023-10-08T02:05:59;14.40;91.90
10129;DHT22;5104;50.720;7.044;2023-10-08T02:08:31;14.40;1.00
10129;DHT22;5104;50.720;7.044;2023-10-08T02:10:58;14.30;12.80
10129;DHT22;5104;50.720;7.044;2023-10-08T02:13:29;14.40;99.90
10129;DHT22;5104;50.720;7.044;2023-10-08T02:15:56;14.50;99.90
10129;DHT22;5104;50.720;7.044;2023-10-08T02:18:24;14.60;1.00
10129;DHT22;5104;50.720;7.044;2023-10-08T02:20:51;14.60;1.00
10129;DHT22;5104;50.720;7.044;2023-10-08T02:23:18;14.50;99.90
10129;DHT22;5104;50.720;7.044;2023-10-08T02:25:48;14.50;1.00
10129;DHT22;5104;50.720;7.044;2023-10-08T02:28:15;14.40;99.90
10129;DHT22;5104;50.720;7.044;2023-10-08T02:30:47;14.30;1.00
10129;DHT22;5104;50.720;7.044;2023-10-08T02:33:14;14.20;99.90
10129;DHT22;5104;50.720;7.044;2023-10-08T02:35:41;14.10;1.00
10129;DHT22;5104;50.720;7.044;2023-10-08T02:38:10;14.00;99.90
10129;DHT22;5104;50.720;7.044;2023-10-08T02:40:38;14.00;1.00
10129;DHT22;5104;50.720;7.044;2023-10-08T02:43:10;14.00;1.00
10129;DHT22;5104;50.720;7.044;2023-10-08T02:45:40;13.90;99.90
10129;DHT22;5104;50.720;7.044;2023-10-08T02:48:08;13.90;19.20
10129;DHT22;5104;50.720;7.044;2023-10-08T02:50:39;13.90;1.00
10129;DHT22;5104;50.720;7.044;2023-10-08T02:53:06;13.90;99.90
10129;DHT22;5104;50.720;7.044;2023-10-08T02:55:36;13.90;1.00
10129;DHT22;5104;50.720;7.044;2023-10-08T02:58:08;13.90;99.90
10129;DHT22;5104;50.720;7.044;2023-10-08T03:00:40;13.90;99.90
10129;DHT22;5104;50.720;7.044;2023-10-08T03:03:08;13.90;1.00
10129;DHT22;5104;50.720;7.044;2023-10-08T03:05:43;13.90;1.00
10129;DHT22;5104;50.720;7.044;2023-10-08T03:08:12;13.90;99.90
10129;DHT22;5104;50.720;7.044;2023-10-08T03:10:39;14.00;1.00
10129;DHT22;5104;50.720;7.044;2023-10-08T03:13:07;14.00;99.90
10129;DHT22;5104;50.720;7.044;2023-10-08T03:15:36;14.10;1.00
10129;DHT22;5104;50.720;7.044;2023-10-08T03:18:14;14.10;1.00
10129;DHT22;5104;50.720;7.044;2023-10-08T03:20:41;14.20;99.90
10129;DHT22;5104;50.720;7.044;2023-10-08T03:23:12;14.30;1.00
10129;DHT22;5104;50.720;7.044;2023-10-08T03:25:52;14.30;99.90
10129;DHT22;5104;50.720;7.044;2023-10-08T03:28:25;14.40;99.90
10129;DHT22;5104;50.720;7.044;2023-10-08T03:30:53;14.50;99.90
10129;DHT22;5104;50.720;7.044;2023-10-08T03:33:33;14.60;1.00
10129;DHT22;5104;50.720;7.044;2023-10-08T03:36:03;14.70;1.00
10129;DHT22;5104;50.720;7.044;2023-10-08T03:38:40;14.80;99.90
10129;DHT22;5104;50.720;7.044;2023-10-08T03:41:16;14.80;99.90
10129;DHT22;5104;50.720;7.044;2023-10-08T03:43:46;14.90;99.90
10129;DHT22;5104;50.720;7.044;2023-10-08T03:46:28;14.90;43.80
10129;DHT22;5104;50.720;7.044;2023-10-08T03:48:57;15.00;1.00
10129;DHT22;5104;50.720;7.044;2023-10-08T03:51:33;15.00;1.00
10129;DHT22;5104;50.720;7.044;2023-10-08T03:54:05;15.00;1.00
10129;DHT22;5104;50.720;7.044;2023-10-08T03:56:46;15.10;1.00
10129;DHT22;5104;50.720;7.044;2023-10-08T03:59:15;15.10;1.00
10129;DHT22;5104;50.720;7.044;2023-10-08T04:01:56;15.10;99.90
10129;DHT22;5104;50.720;7.044;2023-10-08T04:04:27;15.10;1.00
10129;DHT22;5104;50.720;7.044;2023-10-08T04:07:15;15.00;1.00
10129;DHT22;5104;50.720;7.044;2023-10-08T04:09:54;15.00;1.00
10129;DHT22;5104;50.720;7.044;2023-10-08T04:12:42;14.90;59.40
10129;DHT22;5104;50.720;7.044;2023-10-08T04:15:13;14.90;99.90
10129;DHT22;5104;50.720;7.044;2023-10-08T04:17:42;14.80;99.90
10129;DHT22;5104;50.720;7.044;2023-10-08T04:20:14;14.80;1.00
10129;DHT22;5104;50.720;7.044;2023-10-08T04:22:55;14.80;99.90
10129;DHT22;5104;50.720;7.044;2023-10-08T04:25:25;14.80;1.00
10129;DHT22;5104;50.720;7.044;2023-10-08T04:27:54;14.70;99.90
10129;DHT22;5104;50.720;7.044;2023-10-08T04:30:24;14.70;99.90
10129;DHT22;5104;50.720;7.044;2023-10-08T04:32:59;14.70;1.00
10129;DHT22;5104;50.720;7.044;2023-10-08T04:35:33;14.70;99.90
10129;DHT22;5104;50.720;7.044;2023-10-08T04:38:04;14.70;99.90
10129;DHT22;5104;50.720;7.044;2023-10-08T04:40:34;14.80;1.00
10129;DHT22;5104;50.720;7.044;2023-10-08T04:43:07;14.80;1.00
10129;DHT22;5104;50.720;7.044;2023-10-08T04:45:36;14.90;1.00
10129;DHT22;5104;50.720;7.044;2023-10-08T04:48:04;14.80;1.00
10129;DHT22;5104;50.720;7.044;2023-10-08T04:50:37;14.80;1.00
10129;DHT22;5104;50.720;7.044;2023-10-08T04:53:10;14.70;14.60
10129;DHT22;5104;50.720;7.044;2023-10-08T04:55:37;14.60;99.90
10129;DHT22;5104;50.720;7.044;2023-10-08T04:58:14;14.60;99.90
10129;DHT22;5104;50.720;7.044;2023-10-08T05:00:47;14.50;1.00
10129;DHT22;5104;50.720;7.044;2023-10-08T05:03:25;14.50;1.00
10129;DHT22;5104;50.720;7.044;2023-10-08T05:05:59;14.50;1.00
10129;DHT22;5104;50.720;7.044;2023-10-08T05:08:35;14.50;1.00
10129;DHT22;5104;50.720;7.044;2023-10-08T05:11:14;14.50;99.90
10129;DHT22;5104;50.720;7.044;2023-10-08T05:14:02;14.40;99.90
10129;DHT22;5104;50.720;7.044;2023-10-08T05:16:43;14.50;1.00
10129;DHT22;5104;50.720;7.044;2023-10-08T05:19:15;14.50;99.90
10129;DHT22;5104;50.720;7.044;2023-10-08T05:22:01;14.50;99.90
10129;DHT22;5104;50.720;7.044;2023-10-08T05:24:44;14.60;1.00
10129;DHT22;5104;50.720;7.044;2023-10-08T05:27:31;14.60;1.00
10129;DHT22;5104;50.720;7.044;2023-10-08T05:30:19;14.50;1.00
10129;DHT22;5104;50.720;7.044;2023-10-08T05:32:54;14.40;1.00
10129;DHT22;5104;50.720;7.044;2023-10-08T05:35:49;14.40;9.40
10129;DHT22;5104;50.720;7.044;2023-10-08T05:38:22;14.30;99.90
10129;DHT22;5104;50.720;7.044;2023-10-08T05:41:04;14.20;1.00
10129;DHT22;5104;50.720;7.044;2023-10-08T05:43:32;14.20;1.00
10129;DHT22;5104;50.720;7.044;2023-10-08T05:46:21;14.20;1.00
10129;DHT22;5104;50.720;7.044;2023-10-08T05:49:12;14.20;29.80
10129;DHT22;5104;50.720;7.044;2023-10-08T05:51:52;14.30;99.90
10129;DHT22;5104;50.720;7.044;2023-10-08T05:54:38;14.40;1.00
10129;DHT22;5104;50.720;7.044;2023-10-08T05:57:23;14.50;1.00
10129;DHT22;5104;50.720;7.044;2023-10-08T06:00:05;14.50;1.00
10129;DHT22;5104;50.720;7.044;2023-10-08T06:03:01;14.50;1.00
10129;DHT22;5104;50.720;7.044;2023-10-08T06:05:37;14.40;1.00
10129;DHT22;5104;50.720;7.044;2023-10-08T06:08:09;14.50;1.00
10129;DHT22;5104;50.720;7.044;2023-10-08T06:10:42;14.50;1.00
10129;DHT22;5104;50.720;7.044;2023-10-08T06:13:11;14.50;99.90
10129;DHT22;5104;50.720;7.044;2023-10-08T06:15:43;14.50;99.90
10129;DHT22;5104;50.720;7.044;2023-10-08T06:18:17;14.50;1.00
10129;DHT22;5104;50.720;7.044;2023-10-08T06:20:44;14.50;1.00
10129;DHT22;5104;50.720;7.044;2023-10-08T06:23:12;14.50;99.90
10129;DHT22;5104;50.720;7.044;2023-10-08T06:25:45;14.50;99.90
10129;DHT22;5104;50.720;7.044;2023-10-08T06:28:13;14.60;1.00
10129;DHT22;5104;50.720;7.044;2023-10-08T06:30:41;14.60;1.00
10129;DHT22;5104;50.720;7.044;2023-10-08T06:33:09;14.70;1.00
10129;DHT22;5104;50.720;7.044;2023-10-08T06:35:36;14.70;1.00
10129;DHT22;5104;50.720;7.044;2023-10-08T06:38:04;14.80;1.00
10129;DHT22;5104;50.720;7.044;2023-10-08T06:40:35;14.80;1.00
10129;DHT22;5104;50.720;7.044;2023-10-08T06:43:10;14.90;1.00
10129;DHT22;5104;50.720;7.044;2023-10-08T06:45:40;14.90;1.00
10129;DHT22;5104;50.720;7.044;2023-10-08T06:48:08;15.00;1.00
10129;DHT22;5104;50.720;7.044;2023-10-08T06:50:43;15.00;1.00
10129;DHT22;5104;50.720;7.044;2023-10-08T06:53:10;15.10;99.90
10129;DHT22;5104;50.720;7.044;2023-10-08T06:55:40;15.20;1.00
10129;DHT22;5104;50.720;7.044;2023-10-08T06:58:07;15.30;1.00
10129;DHT22;5104;50.720;7.044;2023-10-08T07:00:36;15.40;99.90
10129;DHT22;5104;50.720;7.044;2023-10-08T07:03:12;15.50;99.90
10129;DHT22;5104;50.720;7.044;2023-10-08T07:05:42;15.60;99.90
10129;DHT22;5104;50.720;7.044;2023-10-08T07:08:10;15.70;1.00
10129;DHT22;5104;50.720;7.044;2023-10-08T07:10:40;15.80;1.00
10129;DHT22;5104;50.720;7.044;2023-10-08T07:13:09;15.80;92.70
10129;DHT22;5104;50.720;7.044;2023-10-08T07:15:37;15.90;99.90
10129;DHT22;5104;50.720;7.044;2023-10-08T07:18:10;16.00;86.90
10129;DHT22;5104;50.720;7.044;2023-10-08T07:20:39;16.10;1.00
10129;DHT22;5104;50.720;7.044;2023-10-08T07:23:08;16.30;99.90
10129;DHT22;5104;50.720;7.044;2023-10-08T07:25:46;16.40;13.50
10129;DHT22;5104;50.720;7.044;2023-10-08T07:28:19;16.60;1.00
10129;DHT22;5104;50.720;7.044;2023-10-08T07:30:48;16.70;1.00
10129;DHT22;5104;50.720;7.044;2023-10-08T07:33:15;16.80;1.00
10129;DHT22;5104;50.720;7.044;2023-10-08T07:35:51;16.90;1.00
10129;DHT22;5104;50.720;7.044;2023-10-08T07:38:24;16.90;1.00
10129;DHT22;5104;50.720;7.044;2023-10-08T07:40:52;16.90;99.90
10129;DHT22;5104;50.720;7.044;2023-10-08T07:43:20;16.90;1.00
10129;DHT22;5104;50.720;7.044;2023-10-08T07:45:49;17.00;1.00
10129;DHT22;5104;50.720;7.044;2023-10-08T07:48:19;17.10;1.00
10129;DHT22;5104;50.720;7.044;2023-10-08T07:50:48;17.20;99.90
10129;DHT22;5104;50.720;7.044;2023-10-08T07:53:16;17.30;99.90
10129;DHT22;5104;50.720;7.044;2023-10-08T07:55:46;17.40;99.90
10129;DHT22;5104;50.720;7.044;2023-10-08T07:58:15;17.50;99.90
10129;DHT22;5104;50.720;7.044;2023-10-08T08:00:42;17.50;99.90
10129;DHT22;5104;50.720;7.044;2023-10-08T08:03:19;17.70;1.00
10129;DHT22;5104;50.720;7.044;2023-10-08T08:05:46;17.90;1.00
10129;DHT22;5104;50.720;7.044;2023-10-08T08:08:14;18.00;1.00
10129;DHT22;5104;50.720;7.044;2023-10-08T08:10:44;18.20;1.00
10129;DHT22;5104;50.720;7.044;2023-10-08T08:13:11;18.20;1.00
10129;DHT22;5104;50.720;7.044;2023-10-08T08:15:40;18.30;99.90
10129;DHT22;5104;50.720;7.044;2023-10-08T08:18:09;18.30;99.90
10129;DHT22;5104;50.720;7.044;2023-10-08T08:20:48;18.30;99.90
10129;DHT22;5104;50.720;7.044;2023-10-08T08:23:16;18.50;99.90
10129;DHT22;5104;50.720;7.044;2023-10-08T08:25:43;18.50;99.90
10129;DHT22;5104;50.720;7.044;2023-10-08T08:28:22;18.60;99.90
10129;DHT22;5104;50.720;7.044;2023-10-08T08:30:50;18.70;99.90
10129;DHT22;5104;50.720;7.044;2023-10-08T08:33:21;18.80;99.90
10129;DHT22;5104;50.720;7.044;2023-10-08T08:35:59;18.90;99.90
10129;DHT22;5104;50.720;7.044;2023-10-08T08:38:27;19.10;99.90
10129;DHT22;5104;50.720;7.044;2023-10-08T08:41:02;19.10;99.90
10129;DHT22;5104;50.720;7.044;2023-10-08T08:43:34;19.20;99.90
10129;DHT22;5104;50.720;7.044;2023-10-08T08:46:02;19.30;99.90
10129;DHT22;5104;50.720;7.044;2023-10-08T08:48:33;19.40;99.90
10129;DHT22;5104;50.720;7.044;2023-10-08T08:51:01;19.40;99.90
10129;DHT22;5104;50.720;7.044;2023-10-08T08:53:28;19.40;89.20
10129;DHT22;5104;50.720;7.044;2023-10-08T08:55:55;19.40;96.00
10129;DHT22;5104;50.720;7.044;2023-10-08T08:58:23;19.40;58.40
10129;DHT22;5104;50.720;7.044;2023-10-08T09:00:52;19.60;75.70
10129;DHT22;5104;50.720;7.044;2023-10-08T09:03:21;19.80;99.90
10129;DHT22;5104;50.720;7.044;2023-10-08T09:05:56;19.70;42.80
10129;DHT22;5104;50.720;7.044;2023-10-08T09:08:27;19.80;99.90
10129;DHT22;5104;50.720;7.044;2023-10-08T09:10:57;19.90;80.70
10129;DHT22;5104;50.720;7.044;2023-10-08T09:13:27;19.70;99.90
10129;DHT22;5104;50.720;7.044;2023-10-08T09:15:57;19.50;99.90
10129;DHT22;5104;50.720;7.044;2023-10-08T09:18:24;19.50;99.90
10129;DHT22;5104;50.720;7.044;2023-10-08T09:20:52;19.40;99.90
10129;DHT22;5104;50.720;7.044;2023-10-08T09:23:20;19.40;99.90
10129;DHT22;5104;50.720;7.044;2023-10-08T09:25:50;19.50;99.90
10129;DHT22;5104;50.720;7.044;2023-10-08T09:28:24;19.50;99.90
10129;DHT22;5104;50.720;7.044;2023-10-08T09:30:52;19.50;99.90
10129;DHT22;5104;50.720;7.044;2023-10-08T09:33:24;19.50;99.90
10129;DHT22;5104;50.720;7.044;2023-10-08T09:35:51;19.60;99.90
10129;DHT22;5104;50.720;7.044;2023-10-08T09:38:21;19.70;99.90
10129;DHT22;5104;50.720;7.044;2023-10-08T09:40:52;19.80;99.90
10129;DHT22;5104;50.720;7.044;2023-10-08T09:43:19;19.60;99.90
10129;DHT22;5104;50.720;7.044;2023-10-08T09:45:51;19.70;99.90
10129;DHT22;5104;50.720;7.044;2023-10-08T09:48:20;19.80;99.90
10129;DHT22;5104;50.720;7.044;2023-10-08T09:50:50;19.70;99.90
10129;DHT22;5104;50.720;7.044;2023-10-08T09:53:24;19.70;99.90
10129;DHT22;5104;50.720;7.044;2023-10-08T09:55:55;19.60;99.90
10129;DHT22;5104;50.720;7.044;2023-10-08T09:58:23;19.60;99.90
10129;DHT22;5104;50.720;7.044;2023-10-08T10:00:51;19.70;99.90
10129;DHT22;5104;50.720;7.044;2023-10-08T10:03:19;19.90;99.90
10129;DHT22;5104;50.720;7.044;2023-10-08T10:05:48;20.00;99.90
10129;DHT22;5104;50.720;7.044;2023-10-08T10:08:15;20.20;99.90
10129;DHT22;5104;50.720;7.044;2023-10-08T10:10:43;20.20;99.90
10129;DHT22;5104;50.720;7.044;2023-10-08T10:13:16;20.10;99.90
10129;DHT22;5104;50.720;7.044;2023-10-08T10:15:44;20.10;99.90
10129;DHT22;5104;50.720;7.044;2023-10-08T10:18:14;20.10;99.90
10129;DHT22;5104;50.720;7.044;2023-10-08T10:20:45;20.20;99.90
10129;DHT22;5104;50.720;7.044;2023-10-08T10:23:34;20.30;99.90
10129;DHT22;5104;50.720;7.044;2023-10-08T10:26:02;20.20;99.90
10129;DHT22;5104;50.720;7.044;2023-10-08T10:28:31;20.20;99.90
10129;DHT22;5104;50.720;7.044;2023-10-08T10:30:58;20.30;99.90
10129;DHT22;5104;50.720;7.044;2023-10-08T10:33:30;20.10;99.90
10129;DHT22;5104;50.720;7.044;2023-10-08T10:35:57;20.10;99.90
10129;DHT22;5104;50.720;7.044;2023-10-08T10:38:27;20.30;99.90
10129;DHT22;5104;50.720;7.044;2023-10-08T10:40:55;20.50;99.90
10129;DHT22;5104;50.720;7.044;2023-10-08T10:43:24;20.50;99.90
10129;DHT22;5104;50.720;7.044;2023-10-08T10:46:00;20.40;99.90
10129;DHT22;5104;50.720;7.044;2023-10-08T10:48:49;20.30;99.90
10129;DHT22;5104;50.720;7.044;2023-10-08T10:51:30;20.30;99.90
10129;DHT22;5104;50.720;7.044;2023-10-08T10:53:59;20.50;99.90
10129;DHT22;5104;50.720;7.044;2023-10-08T10:56:33;20.60;99.90
10129;DHT22;5104;50.720;7.044;2023-10-08T10:59:06;20.50;99.90
10129;DHT22;5104;50.720;7.044;2023-10-08T11:01:45;20.30;99.90
10129;DHT22;5104;50.720;7.044;2023-10-08T11:04:18;20.30;1.00
10129;DHT22;5104;50.720;7.044;2023-10-08T11:06:49;20.30;99.90
10129;DHT22;5104;50.720;7.044;2023-10-08T11:09:20;20.30;1.00
10129;DHT22;5104;50.720;7.044;2023-10-08T11:12:01;20.60;99.90
10129;DHT22;5104;50.720;7.044;2023-10-08T11:14:37;20.50;1.00
10129;DHT22;5104;50.720;7.044;2023-10-08T11:17:12;20.70;99.90
10129;DHT22;5104;50.720;7.044;2023-10-08T11:19:40;20.60;99.90
10129;DHT22;5104;50.720;7.044;2023-10-08T11:22:11;20.60;99.90
10129;DHT22;5104;50.720;7.044;2023-10-08T11:24:42;20.60;99.90
10129;DHT22;5104;50.720;7.044;2023-10-08T11:27:13;20.40;1.00
10129;DHT22;5104;50.720;7.044;2023-10-08T11:29:43;20.50;1.00
10129;DHT22;5104;50.720;7.044;2023-10-08T11:32:14;20.70;99.90
10129;DHT22;5104;50.720;7.044;2023-10-08T11:34:45;20.90;99.90
10129;DHT22;5104;50.720;7.044;2023-10-08T11:37:15;20.80;99.90
10129;DHT22;5104;50.720;7.044;2023-10-08T11:39:52;20.90;99.90
10129;DHT22;5104;50.720;7.044;2023-10-08T11:42:23;21.10;99.90
10129;DHT22;5104;50.720;7.044;2023-10-08T11:45:10;21.20;99.90
10129;DHT22;5104;50.720;7.044;2023-10-08T11:47:51;21.10;33.10
10129;DHT22;5104;50.720;7.044;2023-10-08T11:50:23;21.00;99.90
10129;DHT22;5104;50.720;7.044;2023-10-08T11:52:57;21.00;99.90
10129;DHT22;5104;50.720;7.044;2023-10-08T11:55:27;20.90;99.90
10129;DHT22;5104;50.720;7.044;2023-10-08T11:57:54;20.90;99.90
10129;DHT22;5104;50.720;7.044;2023-10-08T12:00:22;20.80;99.90
10129;DHT22;5104;50.720;7.044;2023-10-08T12:02:52;20.90;99.90
10129;DHT22;5104;50.720;7.044;2023-10-08T12:05:21;21.10;90.00
10129;DHT22;5104;50.720;7.044;2023-10-08T12:07:50;21.30;99.90
10129;DHT22;5104;50.720;7.044;2023-10-08T12:10:17;21.50;49.70
10129;DHT22;5104;50.720;7.044;2023-10-08T12:12:49;21.40;16.30
10129;DHT22;5104;50.720;7.044;2023-10-08T12:15:18;21.30;93.70
10129;DHT22;5104;50.720;7.044;2023-10-08T12:17:47;21.50;31.10
10129;DHT22;5104;50.720;7.044;2023-10-08T12:20:35;21.60;1.00
10129;DHT22;5104;50.720;7.044;2023-10-08T12:23:04;21.60;1.00
10129;DHT22;5104;50.720;7.044;2023-10-08T12:25:31;21.90;1.00
10129;DHT22;5104;50.720;7.044;2023-10-08T12:28:00;22.10;1.00
10129;DHT22;5104;50.720;7.044;2023-10-08T12:30:29;22.30;1.00
10129;DHT22;5104;50.720;7.044;2023-10-08T12:33:07;22.50;1.00
10129;DHT22;5104;50.720;7.044;2023-10-08T12:35:39;22.60;1.00
10129;DHT22;5104;50.720;7.044;2023-10-08T12:38:06;22.40;1.00
10129;DHT22;5104;50.720;7.044;2023-10-08T12:40:35;22.40;1.00
10129;DHT22;5104;50.720;7.044;2023-10-08T12:43:13;22.40;1.00
10129;DHT22;5104;50.720;7.044;2023-10-08T12:45:45;22.50;1.00
10129;DHT22;5104;50.720;7.044;2023-10-08T12:48:18;22.40;1.00
10129;DHT22;5104;50.720;7.044;2023-10-08T12:50:46;22.40;1.00
10129;DHT22;5104;50.720;7.044;2023-10-08T12:53:20;22.40;1.00
10129;DHT22;5104;50.720;7.044;2023-10-08T12:55:50;22.30;1.00
10129;DHT22;5104;50.720;7.044;2023-10-08T12:58:21;22.40;1.00
10129;DHT22;5104;50.720;7.044;2023-10-08T13:00:52;22.40;1.00
10129;DHT22;5104;50.720;7.044;2023-10-08T13:03:24;22.40;1.00
10129;DHT22;5104;50.720;7.044;2023-10-08T13:05:52;22.30;1.00
10129;DHT22;5104;50.720;7.044;2023-10-08T13:08:20;22.20;1.00
10129;DHT22;5104;50.720;7.044;2023-10-08T13:10:47;22.00;1.00
10129;DHT22;5104;50.720;7.044;2023-10-08T13:13:14;21.90;1.00
10129;DHT22;5104;50.720;7.044;2023-10-08T13:15:41;21.80;36.20
10129;DHT22;5104;50.720;7.044;2023-10-08T13:18:08;21.90;99.90
10129;DHT22;5104;50.720;7.044;2023-10-08T13:20:36;21.90;99.90
10129;DHT22;5104;50.720;7.044;2023-10-08T13:23:07;21.90;99.90
10129;DHT22;5104;50.720;7.044;2023-10-08T13:25:35;21.90;1.00
10129;DHT22;5104;50.720;7.044;2023-10-08T13:28:05;22.10;1.00
10129;DHT22;5104;50.720;7.044;2023-10-08T13:30:35;22.50;1.00
10129;DHT22;5104;50.720;7.044;2023-10-08T13:33:02;22.40;1.00
10129;DHT22;5104;50.720;7.044;2023-10-08T13:35:29;22.30;1.00
10129;DHT22;5104;50.720;7.044;2023-10-08T13:37:56;22.40;1.00
10129;DHT22;5104;50.720;7.044;2023-10-08T13:40:26;22.10;1.00
10129;DHT22;5104;50.720;7.044;2023-10-08T13:42:58;22.20;1.00
10129;DHT22;5104;50.720;7.044;2023-10-08T13:45:25;21.80;91.30
10129;DHT22;5104;50.720;7.044;2023-10-08T13:47:55;21.70;99.90
10129;DHT22;5104;50.720;7.044;2023-10-08T13:50:25;21.80;92.50
10129;DHT22;5104;50.720;7.044;2023-10-08T13:52:56;21.90;65.30
10129;DHT22;5104;50.720;7.044;2023-10-08T13:55:23;21.80;98.70
10129;DHT22;5104;50.720;7.044;2023-10-08T13:57:52;21.90;1.00
10129;DHT22;5104;50.720;7.044;2023-10-08T14:00:19;21.80;1.00
10129;DHT22;5104;50.720;7.044;2023-10-08T14:02:51;21.70;27.70
10129;DHT22;5104;50.720;7.044;2023-10-08T14:05:18;21.80;43.60
10129;DHT22;5104;50.720;7.044;2023-10-08T14:07:50;21.90;99.90
10129;DHT22;5104;50.720;7.044;2023-10-08T14:10:18;22.00;99.90
10129;DHT22;5104;50.720;7.044;2023-10-08T14:12:46;21.80;99.90
10129;DHT22;5104;50.720;7.044;2023-10-08T14:15:16;21.80;99.90
10129;DHT22;5104;50.720;7.044;2023-10-08T14:17:44;21.80;99.90
10129;DHT22;5104;50.720;7.044;2023-10-08T14:20:14;21.90;99.90
10129;DHT22;5104;50.720;7.044;2023-10-08T14:22:47;22.00;99.90
10129;DHT22;5104;50.720;7.044;2023-10-08T14:25:23;22.00;99.90
10129;DHT22;5104;50.720;7.044;2023-10-08T14:27:53;22.00;99.90
10129;DHT22;5104;50.720;7.044;2023-10-08T14:30:31;21.90;99.90
10129;DHT22;5104;50.720;7.044;2023-10-08T14:33:00;21.80;99.90
10129;DHT22;5104;50.720;7.044;2023-10-08T14:35:29;21.70;1.00
10129;DHT22;5104;50.720;7.044;2023-10-08T14:38:13;21.60;1.00
10129;DHT22;5104;50.720;7.044;2023-10-08T14:40:58;21.50;1.00
10129;DHT22;5104;50.720;7.044;2023-10-08T14:43:42;21.20;1.00
10129;DHT22;5104;50.720;7.044;2023-10-08T14:46:10;21.10;1.00
10129;DHT22;5104;50.720;7.044;2023-10-08T14:48:37;21.20;1.00
10129;DHT22;5104;50.720;7.044;2023-10-08T14:51:06;20.90;1.00
10129;DHT22;5104;50.720;7.044;2023-10-08T14:53:33;20.90;1.00
10129;DHT22;5104;50.720;7.044;2023-10-08T14:56:04;20.80;1.00
10129;DHT22;5104;50.720;7.044;2023-10-08T14:58:31;20.80;1.00
10129;DHT22;5104;50.720;7.044;2023-10-08T15:00:59;20.60;46.10
10129;DHT22;5104;50.720;7.044;2023-10-08T15:03:28;20.60;1.00
10129;DHT22;5104;50.720;7.044;2023-10-08T15:05:56;20.60;1.00
10129;DHT22;5104;50.720;7.044;2023-10-08T15:08:24;20.50;1.00
10129;DHT22;5104;50.720;7.044;2023-10-08T15:10:52;20.40;1.00
10129;DHT22;5104;50.720;7.044;2023-10-08T15:13:19;20.40;42.80
10129;DHT22;5104;50.720;7.044;2023-10-08T15:15:46;20.40;99.90
10129;DHT22;5104;50.720;7.044;2023-10-08T15:18:14;20.40;99.90
10129;DHT22;5104;50.720;7.044;2023-10-08T15:20:45;20.60;98.90
10129;DHT22;5104;50.720;7.044;2023-10-08T15:23:12;20.80;1.00
10129;DHT22;5104;50.720;7.044;2023-10-08T15:25:39;20.80;36.40
10129;DHT22;5104;50.720;7.044;2023-10-08T15:28:07;20.80;1.00
10129;DHT22;5104;50.720;7.044;2023-10-08T15:30:34;20.70;1.00
10129;DHT22;5104;50.720;7.044;2023-10-08T15:33:01;20.80;1.00
10129;DHT22;5104;50.720;7.044;2023-10-08T15:35:28;20.80;1.00
10129;DHT22;5104;50.720;7.044;2023-10-08T15:37:56;20.90;1.00
10129;DHT22;5104;50.720;7.044;2023-10-08T15:40:23;21.10;1.00
10129;DHT22;5104;50.720;7.044;2023-10-08T15:42:51;21.10;1.00
10129;DHT22;5104;50.720;7.044;2023-10-08T15:45:19;21.10;1.00
10129;DHT22;5104;50.720;7.044;2023-10-08T15:47:46;20.90;1.00
10129;DHT22;5104;50.720;7.044;2023-10-08T15:50:15;20.80;1.00
10129;DHT22;5104;50.720;7.044;2023-10-08T15:52:42;20.70;1.00
10129;DHT22;5104;50.720;7.044;2023-10-08T15:55:10;20.60;99.90
10129;DHT22;5104;50.720;7.044;2023-10-08T15:57:37;20.40;99.90
10129;DHT22;5104;50.720;7.044;2023-10-08T16:00:06;20.20;1.00
10129;DHT22;5104;50.720;7.044;2023-10-08T16:02:34;20.10;1.00
10129;DHT22;5104;50.720;7.044;2023-10-08T16:05:01;20.00;1.00
10129;DHT22;5104;50.720;7.044;2023-10-08T16:07:28;19.80;1.00
10129;DHT22;5104;50.720;7.044;2023-10-08T16:09:55;19.70;1.00
10129;DHT22;5104;50.720;7.044;2023-10-08T16:12:23;19.60;94.10
10129;DHT22;5104;50.720;7.044;2023-10-08T16:14:50;19.40;99.90
10129;DHT22;5104;50.720;7.044;2023-10-08T16:17:17;19.30;99.90
10129;DHT22;5104;50.720;7.044;2023-10-08T16:19:45;19.20;1.00